createdAt,value
2022-12-09T00:02:22.592Z,17.02
2022-12-09T00:04:49.892Z,15.35
2022-12-09T00:07:17.128Z,16.30
2022-12-09T00:09:44.060Z,15.13
2022-12-09T00:12:11.177Z,14.10
2022-12-09T00:14:38.228Z,15.70
2022-12-09T00:17:05.488Z,17.13
2022-12-09T00:19:34.471Z,16.75
2022-12-09T00:22:01.522Z,17.05
2022-12-09T00:24:28.590Z,16.88
2022-12-09T00:26:55.551Z,17.20
2022-12-09T00:29:22.672Z,13.63
2022-12-09T00:31:49.677Z,17.40
2022-12-09T00:34:16.760Z,18.45
2022-12-09T00:36:43.763Z,15.68
2022-12-09T00:39:12.326Z,15.68
2022-12-09T00:41:39.624Z,17.20
2022-12-09T00:44:06.881Z,16.90
2022-12-09T00:46:34.245Z,13.52
2022-12-09T00:49:01.243Z,16.58
2022-12-09T00:51:28.106Z,18.75
2022-12-09T00:53:55.923Z,19.48
2022-12-09T00:56:25.442Z,16.80
2022-12-09T00:58:52.780Z,15.15
2022-12-09T01:01:19.863Z,15.82
2022-12-09T01:03:46.906Z,17.77
2022-12-09T01:06:25.615Z,16.95
2022-12-09T01:08:52.994Z,17.75
2022-12-09T01:11:28.904Z,19.45
2022-12-09T01:14:00.869Z,14.23
2022-12-09T01:16:31.149Z,16.85
2022-12-09T01:19:00.328Z,16.90
2022-12-09T01:21:29.436Z,19.60
2022-12-09T01:23:56.526Z,19.35
2022-12-09T01:26:23.642Z,15.20
2022-12-09T01:28:52.821Z,18.42
2022-12-09T01:31:23.131Z,20.80
2022-12-09T01:33:50.572Z,19.48
2022-12-09T01:36:21.017Z,18.30
2022-12-09T01:38:48.716Z,15.68
2022-12-09T01:41:17.658Z,15.60
2022-12-09T01:43:45.576Z,15.73
2022-12-09T01:46:13.027Z,17.25
2022-12-09T01:48:46.445Z,16.92
2022-12-09T01:51:19.885Z,14.35
2022-12-09T01:53:50.096Z,15.65
2022-12-09T01:56:25.558Z,16.13
2022-12-09T01:58:54.519Z,24.40
2022-12-09T02:01:22.475Z,17.20
2022-12-09T02:03:50.344Z,18.08
2022-12-09T02:06:17.924Z,19.65
2022-12-09T02:08:46.824Z,20.50
2022-12-09T02:11:35.147Z,16.50
2022-12-09T02:14:23.351Z,18.83
2022-12-09T02:17:21.449Z,17.65
2022-12-09T02:20:25.404Z,16.95
2022-12-09T02:23:12.195Z,18.25
2022-12-09T02:26:07.881Z,21.63
2022-12-09T02:29:02.006Z,18.65
2022-12-09T02:31:43.238Z,18.15
2022-12-09T02:34:21.014Z,18.98
2022-12-09T02:37:11.494Z,17.20
2022-12-09T02:39:57.833Z,18.42
2022-12-09T02:42:31.264Z,16.17
2022-12-09T02:45:03.780Z,21.42
2022-12-09T02:47:34.455Z,17.60
2022-12-09T02:50:05.463Z,20.27
2022-12-09T02:52:35.561Z,18.92
2022-12-09T02:55:07.651Z,19.85
2022-12-09T02:57:37.216Z,19.02
2022-12-09T03:00:06.864Z,18.75
2022-12-09T03:02:44.842Z,18.13
2022-12-09T03:05:34.081Z,20.83
2022-12-09T03:08:19.219Z,19.88
2022-12-09T03:11:09.015Z,19.67
2022-12-09T03:13:57.175Z,20.08
2022-12-09T03:16:49.372Z,17.70
2022-12-09T03:20:00.446Z,19.75
2022-12-09T03:22:29.723Z,20.58
2022-12-09T03:25:06.999Z,20.30
2022-12-09T03:27:57.171Z,18.00
2022-12-09T03:30:24.111Z,18.90
2022-12-09T03:32:52.550Z,22.13
2022-12-09T03:35:25.318Z,24.38
2022-12-09T03:37:53.895Z,21.38
2022-12-09T03:40:25.808Z,19.58
2022-12-09T03:43:04.585Z,22.38
2022-12-09T03:45:32.457Z,18.90
2022-12-09T03:47:59.915Z,24.30
2022-12-09T03:50:31.205Z,21.85
2022-12-09T03:53:09.536Z,19.92
2022-12-09T03:55:54.993Z,22.08
2022-12-09T03:58:21.990Z,20.42
2022-12-09T04:00:49.544Z,22.00
2022-12-09T04:03:19.972Z,19.80
2022-12-09T04:05:47.785Z,22.92
2022-12-09T04:08:15.966Z,21.55
2022-12-09T04:10:43.002Z,21.67
2022-12-09T04:13:09.943Z,18.60
2022-12-09T04:15:36.827Z,20.88
2022-12-09T04:18:04.161Z,21.17
2022-12-09T04:20:31.089Z,22.10
2022-12-09T04:22:57.972Z,19.48
2022-12-09T04:25:24.910Z,18.25
2022-12-09T04:27:52.183Z,18.92
2022-12-09T04:30:19.228Z,19.05
2022-12-09T04:32:46.748Z,18.48
2022-12-09T04:35:13.785Z,14.55
2022-12-09T04:37:40.720Z,17.05
2022-12-09T04:40:08.550Z,20.20
2022-12-09T04:42:36.068Z,21.23
2022-12-09T04:45:03.630Z,17.10
2022-12-09T04:47:30.558Z,17.50
2022-12-09T04:49:57.789Z,17.98
2022-12-09T04:52:24.740Z,19.55
2022-12-09T04:54:51.643Z,17.67
2022-12-09T04:57:19.566Z,18.00
2022-12-09T04:59:46.520Z,17.83
2022-12-09T05:02:13.627Z,18.02
2022-12-09T05:04:42.963Z,16.58
2022-12-09T05:07:11.903Z,17.40
2022-12-09T05:09:39.692Z,18.75
2022-12-09T05:12:07.027Z,19.10
2022-12-09T05:14:34.018Z,15.63
2022-12-09T05:17:02.334Z,17.15
2022-12-09T05:19:29.460Z,14.48
2022-12-09T05:21:56.425Z,19.27
2022-12-09T05:24:23.652Z,17.08
2022-12-09T05:26:50.791Z,18.10
2022-12-09T05:29:22.785Z,19.60
2022-12-09T05:31:51.740Z,15.57
2022-12-09T05:34:19.211Z,16.30
2022-12-09T05:36:46.786Z,15.02
2022-12-09T05:39:13.988Z,15.65
2022-12-09T05:41:41.184Z,16.42
2022-12-09T05:44:08.286Z,16.75
2022-12-09T05:46:35.461Z,17.15
2022-12-09T05:49:03.090Z,16.92
2022-12-09T05:51:31.213Z,15.82
2022-12-09T05:54:03.826Z,16.70
2022-12-09T05:56:31.689Z,16.52
2022-12-09T05:58:59.483Z,17.45
2022-12-09T06:01:27.205Z,16.20
2022-12-09T06:03:55.469Z,16.33
2022-12-09T06:06:26.856Z,17.15
2022-12-09T06:09:00.669Z,17.77
2022-12-09T06:11:28.169Z,15.57
2022-12-09T06:13:56.169Z,16.90
2022-12-09T06:16:23.542Z,17.52
2022-12-09T06:18:51.560Z,19.02
2022-12-09T06:21:20.953Z,17.65
2022-12-09T06:23:49.928Z,15.13
2022-12-09T06:26:17.208Z,15.85
2022-12-09T06:28:44.573Z,19.42
2022-12-09T06:31:11.823Z,17.00
2022-12-09T06:33:57.127Z,20.58
2022-12-09T06:36:29.149Z,16.90
2022-12-09T06:39:01.769Z,19.38
2022-12-09T06:41:30.450Z,22.45
2022-12-09T06:43:58.463Z,15.80
2022-12-09T06:46:27.206Z,16.30
2022-12-09T06:48:55.960Z,17.23
2022-12-09T06:51:25.109Z,17.23
2022-12-09T06:53:52.841Z,16.73
2022-12-09T06:56:20.313Z,18.90
2022-12-09T06:58:48.245Z,17.92
2022-12-09T07:01:18.393Z,20.27
2022-12-09T07:03:51.687Z,18.80
2022-12-09T07:06:40.194Z,19.13
2022-12-09T07:09:19.831Z,19.50
2022-12-09T07:11:48.091Z,18.83
2022-12-09T07:14:16.893Z,17.65
2022-12-09T07:16:44.681Z,18.27
2022-12-09T07:19:19.188Z,17.88
2022-12-09T07:21:47.066Z,21.63
2022-12-09T07:24:14.121Z,18.65
2022-12-09T07:26:41.446Z,20.20
2022-12-09T07:29:09.309Z,16.70
2022-12-09T07:31:37.479Z,18.58
2022-12-09T07:34:05.577Z,19.08
2022-12-09T07:36:35.177Z,20.52
2022-12-09T07:39:06.549Z,18.30
2022-12-09T07:41:34.577Z,17.90
2022-12-09T07:44:01.884Z,19.42
2022-12-09T07:46:29.716Z,21.38
2022-12-09T07:48:57.555Z,19.30
2022-12-09T07:51:25.848Z,18.08
2022-12-09T07:53:53.749Z,21.52
2022-12-09T07:56:22.567Z,19.65
2022-12-09T07:58:53.356Z,21.13
2022-12-09T08:01:26.958Z,18.70
2022-12-09T08:03:55.356Z,23.13
2022-12-09T08:06:25.967Z,20.17
2022-12-09T08:08:53.919Z,26.00
2022-12-09T08:11:28.445Z,20.55
2022-12-09T08:14:02.861Z,26.08
2022-12-09T08:16:33.646Z,21.10
2022-12-09T08:19:01.075Z,22.23
2022-12-09T08:21:30.637Z,22.13
2022-12-09T08:24:01.137Z,24.33
2022-12-09T08:26:30.815Z,21.95
2022-12-09T08:28:58.920Z,21.52
2022-12-09T08:31:27.323Z,24.30
2022-12-09T08:33:55.128Z,23.80
2022-12-09T08:36:25.556Z,20.42
2022-12-09T08:38:53.031Z,20.08
2022-12-09T08:41:22.998Z,25.67
2022-12-09T08:43:50.135Z,21.42
2022-12-09T08:46:17.175Z,20.98
2022-12-09T08:48:44.702Z,20.98
2022-12-09T08:51:12.563Z,21.52
2022-12-09T08:53:40.278Z,19.52
2022-12-09T08:56:12.938Z,22.52
2022-12-09T08:58:41.102Z,21.60
2022-12-09T09:01:15.153Z,23.80
2022-12-09T09:03:42.898Z,23.40
2022-12-09T09:06:11.359Z,27.98
2022-12-09T09:08:39.505Z,24.13
2022-12-09T09:11:19.947Z,28.17
2022-12-09T09:13:51.674Z,20.80
2022-12-09T09:16:21.765Z,28.58
2022-12-09T09:18:49.935Z,27.98
2022-12-09T09:21:19.658Z,24.67
2022-12-09T09:23:47.559Z,27.70
2022-12-09T09:26:20.873Z,24.27
2022-12-09T09:28:48.727Z,27.60
2022-12-09T09:31:21.608Z,28.88
2022-12-09T09:33:49.898Z,28.95
2022-12-09T09:36:20.939Z,33.83
2022-12-09T09:38:49.451Z,29.55
2022-12-09T09:41:36.378Z,30.55
2022-12-09T09:44:04.754Z,28.60
2022-12-09T09:46:42.409Z,26.30
2022-12-09T09:49:18.936Z,26.30
2022-12-09T09:51:46.975Z,31.77
2022-12-09T09:54:16.076Z,31.45
2022-12-09T09:56:55.204Z,28.13
2022-12-09T09:59:27.944Z,30.27
2022-12-09T10:02:11.602Z,29.08
2022-12-09T10:04:45.388Z,31.30
2022-12-09T10:07:15.585Z,41.45
2022-12-09T10:10:09.453Z,37.88
2022-12-09T10:13:00.729Z,34.33
2022-12-09T10:16:06.437Z,31.15
2022-12-09T10:18:40.443Z,35.65
2022-12-09T10:21:19.455Z,33.03
2022-12-09T10:23:48.775Z,32.83
2022-12-09T10:26:22.911Z,33.50
2022-12-09T10:28:56.217Z,34.17
2022-12-09T10:31:24.498Z,31.17
2022-12-09T10:33:52.318Z,36.17
2022-12-09T10:36:35.223Z,29.48
2022-12-09T10:39:04.692Z,32.22
2022-12-09T10:42:13.522Z,33.72
2022-12-09T10:44:40.560Z,32.67
2022-12-09T10:47:25.915Z,29.58
2022-12-09T10:49:54.616Z,34.88
2022-12-09T10:52:29.134Z,27.48
2022-12-09T10:54:56.612Z,34.75
2022-12-09T10:57:26.819Z,33.78
2022-12-09T11:00:00.100Z,31.90
2022-12-09T11:02:28.743Z,34.53
2022-12-09T11:04:56.352Z,27.25
2022-12-09T11:07:27.985Z,28.25
2022-12-09T11:09:58.700Z,32.95
2022-12-09T11:12:32.108Z,30.83
2022-12-09T11:15:22.148Z,29.42
2022-12-09T11:18:15.798Z,33.42
2022-12-09T11:20:53.648Z,23.42
2022-12-09T11:23:21.332Z,27.35
2022-12-09T11:25:58.603Z,34.83
2022-12-09T11:28:26.088Z,25.52
2022-12-09T11:31:27.950Z,29.42
2022-12-09T11:34:03.595Z,27.27
2022-12-09T11:36:44.378Z,29.52
2022-12-09T11:39:20.251Z,30.73
2022-12-09T11:42:16.628Z,30.27
2022-12-09T11:45:01.912Z,25.92
2022-12-09T11:47:57.156Z,26.10
2022-12-09T11:50:24.028Z,23.02
2022-12-09T11:53:13.653Z,30.58
2022-12-09T11:56:03.435Z,28.77
2022-12-09T11:58:55.873Z,26.15
2022-12-09T12:01:41.988Z,27.90
2022-12-09T12:04:11.905Z,27.70
2022-12-09T12:06:49.412Z,28.00
2022-12-09T12:09:25.181Z,30.02
2022-12-09T12:12:27.016Z,24.95
2022-12-09T12:14:57.497Z,25.63
2022-12-09T12:17:38.139Z,27.48
2022-12-09T12:20:06.138Z,26.95
2022-12-09T12:23:19.746Z,29.08
2022-12-09T12:25:46.554Z,28.60
2022-12-09T12:28:21.949Z,26.60
2022-12-09T12:31:18.894Z,31.92
2022-12-09T12:34:24.742Z,24.75
2022-12-09T12:37:00.515Z,25.50
2022-12-09T12:39:42.242Z,28.00
2022-12-09T12:42:27.614Z,29.90
2022-12-09T12:45:33.981Z,27.40
2022-12-09T12:48:08.264Z,26.88
2022-12-09T12:51:03.231Z,33.45
2022-12-09T12:53:43.210Z,29.05
2022-12-09T12:56:24.319Z,30.08
2022-12-09T12:59:35.769Z,28.33
2022-12-09T13:02:14.928Z,27.33
2022-12-09T13:04:54.515Z,26.90
2022-12-09T13:07:41.534Z,25.70
2022-12-09T13:10:26.879Z,29.25
2022-12-09T13:12:59.577Z,28.05
2022-12-09T13:15:46.422Z,29.25
2022-12-09T13:18:19.316Z,29.30
2022-12-09T13:20:47.812Z,27.80
2022-12-09T13:23:26.834Z,25.92
2022-12-09T13:26:21.056Z,33.15
2022-12-09T13:29:17.745Z,29.83
2022-12-09T13:32:03.198Z,33.53
2022-12-09T13:34:42.079Z,26.30
2022-12-09T13:37:33.847Z,29.38
2022-12-09T13:40:01.831Z,28.27
2022-12-09T13:42:47.604Z,30.80
2022-12-09T13:45:28.380Z,27.92
2022-12-09T13:47:56.987Z,26.83
2022-12-09T13:50:31.074Z,28.23
2022-12-09T13:53:15.059Z,26.80
2022-12-09T13:55:49.854Z,25.50
2022-12-09T13:58:53.967Z,25.48
2022-12-09T14:01:27.289Z,27.63
2022-12-09T14:04:10.777Z,27.20
2022-12-09T14:06:50.868Z,29.27
2022-12-09T14:09:29.178Z,26.70
2022-12-09T14:11:57.624Z,25.83
2022-12-09T14:14:25.491Z,25.15
2022-12-09T14:16:59.619Z,26.27
2022-12-09T14:19:27.502Z,25.95
2022-12-09T14:22:20.071Z,21.70
2022-12-09T14:24:50.956Z,23.95
2022-12-09T14:27:17.919Z,26.40
2022-12-09T14:29:49.745Z,21.70
2022-12-09T14:32:28.997Z,22.45
2022-12-09T14:35:06.824Z,21.80
2022-12-09T14:38:01.758Z,23.92
2022-12-09T14:40:56.094Z,21.40
2022-12-09T14:44:00.609Z,22.77
2022-12-09T14:46:34.668Z,21.42
2022-12-09T14:49:12.671Z,21.10
2022-12-09T14:51:49.099Z,19.02
2022-12-09T14:54:19.580Z,17.23
2022-12-09T14:56:50.036Z,20.50
2022-12-09T14:59:22.475Z,22.20
2022-12-09T15:01:55.852Z,22.42
2022-12-09T15:04:25.677Z,21.58
2022-12-09T15:07:12.947Z,21.13
2022-12-09T15:09:51.342Z,21.05
2022-12-09T15:12:20.675Z,21.65
2022-12-09T15:14:51.387Z,22.10
2022-12-09T15:17:27.246Z,23.35
2022-12-09T15:20:02.040Z,23.30
2022-12-09T15:22:31.584Z,22.30
2022-12-09T15:24:59.249Z,19.98
2022-12-09T15:27:26.478Z,19.40
2022-12-09T15:29:54.309Z,23.50
2022-12-09T15:32:28.592Z,18.52
2022-12-09T15:34:55.932Z,16.48
2022-12-09T15:37:27.072Z,17.05
2022-12-09T15:40:10.191Z,15.18
2022-12-09T15:42:41.113Z,22.48
2022-12-09T15:45:13.582Z,16.55
2022-12-09T15:47:46.044Z,18.83
2022-12-09T15:50:31.361Z,19.75
2022-12-09T15:53:10.494Z,16.77
2022-12-09T15:55:44.686Z,22.33
2022-12-09T15:58:14.924Z,16.90
2022-12-09T16:00:47.122Z,18.73
2022-12-09T16:03:20.067Z,17.67
2022-12-09T16:05:56.581Z,19.02
2022-12-09T16:08:30.448Z,23.85
2022-12-09T16:10:58.563Z,25.02
2022-12-09T16:13:25.715Z,21.20
2022-12-09T16:15:56.318Z,23.67
2022-12-09T16:18:32.213Z,21.38
2022-12-09T16:21:17.776Z,18.58
2022-12-09T16:23:48.248Z,19.90
2022-12-09T16:26:29.343Z,21.35
2022-12-09T16:29:04.641Z,20.05
2022-12-09T16:31:31.788Z,21.80
2022-12-09T16:33:58.774Z,26.08
2022-12-09T16:36:31.261Z,20.23
2022-12-09T16:39:12.941Z,19.77
2022-12-09T16:41:52.180Z,19.25
2022-12-09T16:44:21.280Z,22.08
2022-12-09T16:46:48.234Z,21.77
2022-12-09T16:49:15.437Z,23.35
2022-12-09T16:51:42.286Z,19.73
2022-12-09T16:54:20.174Z,18.58
2022-12-09T16:56:48.592Z,21.23
2022-12-09T16:59:15.511Z,20.63
2022-12-09T17:01:43.015Z,26.15
2022-12-09T17:04:28.036Z,22.00
2022-12-09T17:06:55.743Z,20.75
2022-12-09T17:09:22.627Z,22.42
2022-12-09T17:11:49.563Z,18.50
2022-12-09T17:14:17.486Z,23.98
2022-12-09T17:16:45.082Z,37.03
2022-12-09T17:19:12.961Z,22.27
2022-12-09T17:21:39.945Z,21.95
2022-12-09T17:24:07.675Z,20.17
2022-12-09T17:26:35.038Z,21.27
2022-12-09T17:29:02.279Z,23.85
2022-12-09T17:31:29.639Z,21.33
2022-12-09T17:33:57.398Z,18.98
2022-12-09T17:36:24.450Z,19.58
2022-12-09T17:38:51.352Z,22.95
2022-12-09T17:41:20.869Z,18.08
2022-12-09T17:43:47.988Z,19.33
2022-12-09T17:46:15.117Z,24.52
2022-12-09T17:48:42.357Z,22.38
2022-12-09T17:51:12.001Z,17.70
2022-12-09T17:53:41.060Z,19.13
2022-12-09T17:56:16.976Z,17.75
2022-12-09T17:58:44.294Z,19.98
2022-12-09T18:01:21.823Z,21.02
2022-12-09T18:03:58.441Z,23.40
2022-12-09T18:06:28.455Z,16.15
2022-12-09T18:08:55.349Z,19.55
2022-12-09T18:11:22.526Z,21.58
2022-12-09T18:13:51.627Z,21.00
2022-12-09T18:16:19.229Z,15.68
2022-12-09T18:18:46.525Z,16.23
2022-12-09T18:21:16.371Z,17.95
2022-12-09T18:23:43.955Z,21.55
2022-12-09T18:26:16.287Z,19.92
2022-12-09T18:28:43.698Z,17.25
2022-12-09T18:31:14.076Z,18.58
2022-12-09T18:33:41.800Z,18.52
2022-12-09T18:36:15.616Z,20.65
2022-12-09T18:38:43.301Z,19.40
2022-12-09T18:41:19.276Z,18.13
2022-12-09T18:43:48.117Z,18.58
2022-12-09T18:46:25.199Z,17.88
2022-12-09T18:48:57.651Z,19.58
2022-12-09T18:51:24.846Z,17.48
2022-12-09T18:53:51.690Z,17.70
2022-12-09T18:56:19.224Z,18.25
2022-12-09T19:01:34.087Z,15.05
2022-12-09T19:04:02.897Z,20.08
2022-12-09T19:06:35.832Z,17.65
2022-12-09T19:09:28.478Z,18.17
2022-12-09T19:11:55.570Z,18.25
2022-12-09T19:14:23.708Z,30.67
2022-12-09T19:16:51.974Z,30.50
2022-12-09T19:19:21.862Z,20.63
2022-12-09T19:21:49.827Z,15.45
2022-12-09T19:24:25.995Z,16.65
2022-12-09T19:26:55.200Z,16.05
2022-12-09T19:29:24.708Z,18.05
2022-12-09T19:31:52.811Z,16.92
2022-12-09T19:34:25.425Z,17.33
2022-12-09T19:36:54.167Z,16.05
2022-12-09T19:39:24.041Z,16.13
2022-12-09T19:41:51.682Z,19.25
2022-12-09T19:44:37.125Z,20.05
2022-12-09T19:47:07.575Z,15.85
2022-12-09T19:49:34.700Z,15.98
2022-12-09T19:52:03.703Z,18.80
2022-12-09T19:54:30.612Z,15.38
2022-12-09T19:56:57.559Z,17.58
2022-12-09T19:59:24.459Z,19.98
2022-12-09T20:01:51.874Z,18.80
2022-12-09T20:04:48.139Z,18.45
2022-12-09T20:07:09.846Z,21.45
2022-12-09T20:09:37.865Z,22.90
2022-12-09T20:12:05.078Z,16.10
2022-12-09T20:14:32.077Z,18.77
2022-12-09T20:16:59.019Z,17.83
2022-12-09T20:19:25.953Z,22.27
2022-12-09T20:21:52.834Z,17.10
2022-12-09T20:24:20.038Z,27.13
2022-12-09T20:26:47.028Z,22.60
2022-12-09T20:29:13.966Z,20.95
2022-12-09T20:31:42.643Z,21.52
2022-12-09T20:34:13.947Z,21.95
2022-12-09T20:36:43.179Z,23.67
2022-12-09T20:39:19.135Z,20.88
2022-12-09T20:41:47.385Z,22.00
2022-12-09T20:44:15.755Z,20.17
2022-12-09T20:46:46.958Z,18.77
2022-12-09T20:49:14.333Z,22.63
2022-12-09T20:51:41.873Z,22.00
2022-12-09T20:54:11.072Z,28.65
2022-12-09T20:56:38.318Z,24.50
2022-12-09T20:59:06.708Z,24.35
2022-12-09T21:01:35.919Z,23.55
2022-12-09T21:04:06.089Z,23.38
2022-12-09T21:06:36.670Z,24.77
2022-12-09T21:09:08.432Z,24.63
2022-12-09T21:11:36.436Z,28.73
2022-12-09T21:14:05.267Z,24.33
2022-12-09T21:16:35.420Z,24.67
2022-12-09T21:19:05.709Z,23.33
2022-12-09T21:21:34.892Z,26.27
2022-12-09T21:24:03.699Z,28.77
2022-12-09T21:26:31.400Z,28.67
2022-12-09T21:29:00.696Z,29.85
2022-12-09T21:31:33.752Z,31.80
2022-12-09T21:34:04.693Z,30.80
2022-12-09T21:36:34.852Z,29.77
2022-12-09T21:39:02.365Z,30.30
2022-12-09T21:42:09.198Z,35.75
2022-12-09T21:44:36.129Z,34.55
2022-12-09T21:47:03.016Z,29.88
2022-12-09T21:49:31.682Z,33.22
2022-12-09T21:52:00.788Z,34.13
2022-12-09T21:54:27.735Z,33.05
2022-12-09T21:56:54.671Z,32.70
2022-12-09T21:59:21.656Z,32.30
2022-12-09T22:01:48.625Z,31.35
2022-12-09T22:04:17.528Z,36.47
2022-12-09T22:06:46.689Z,33.08
2022-12-09T22:09:13.875Z,34.35
2022-12-09T22:11:42.356Z,29.40
2022-12-09T22:14:10.521Z,34.28
2022-12-09T22:16:40.526Z,29.25
2022-12-09T22:19:08.559Z,31.30
2022-12-09T22:21:36.780Z,29.00
2022-12-09T22:24:06.675Z,30.63
2022-12-09T22:26:34.297Z,31.42
2022-12-09T22:29:05.849Z,28.45
2022-12-09T22:31:36.995Z,31.25
2022-12-09T22:34:11.246Z,29.40
2022-12-09T22:36:38.446Z,27.63
2022-12-09T22:39:08.832Z,26.10
2022-12-09T22:41:35.868Z,27.63
2022-12-09T22:44:03.048Z,33.20
2022-12-09T22:46:32.353Z,27.85
2022-12-09T22:49:02.258Z,27.48
2022-12-09T22:51:31.641Z,24.42
2022-12-09T22:54:00.467Z,28.02
2022-12-09T22:56:28.155Z,26.05
2022-12-09T22:58:55.123Z,31.63
2022-12-09T23:01:25.911Z,30.75
2022-12-09T23:03:54.858Z,32.97
2022-12-09T23:06:21.966Z,32.00
2022-12-09T23:08:49.164Z,32.00
2022-12-09T23:11:21.688Z,29.67
2022-12-09T23:13:49.235Z,30.85
2022-12-09T23:16:18.936Z,33.30
2022-12-09T23:18:46.367Z,31.65
2022-12-09T23:21:17.702Z,31.30
2022-12-09T23:23:45.075Z,28.38
2022-12-09T23:26:17.790Z,29.40
2022-12-09T23:28:47.380Z,33.28
2022-12-09T23:31:17.488Z,29.30
2022-12-09T23:33:46.181Z,31.98
2022-12-09T23:36:15.968Z,34.13
2022-12-09T23:38:43.556Z,30.80
2022-12-09T23:41:12.557Z,29.67
2022-12-09T23:43:39.791Z,30.92
2022-12-09T23:46:15.639Z,30.08
2022-12-09T23:48:44.301Z,28.63
2022-12-09T23:51:14.183Z,30.75
2022-12-09T23:53:42.332Z,27.58
2022-12-09T23:56:14.543Z,29.20
2022-12-09T23:58:42.100Z,33.08
